QFA434 YMML-YSSY
Flight info
| Callsign | QFA434 |
|---|---|
| Flight time | 1h 5m |
| Altitude | 37000 |
| Route | ML H129 DOSEL Y59 RIVET |
| Aircraft | B738/M-SDE2E3FGHIRWXY/LB1 |
Departure
| Time | 2026-04-25 01:56 |
|---|---|
| Airport | Melbourne Airport (YMML) |
Arrival
| Time | 2026-04-25 03:02 |
|---|---|
| Airport | Sydney Kingsford Smith International Airport (YSSY) |
| Time | Latitude | Longitude | Altitude | Speed | Heading |
|---|---|---|---|---|---|
| 2026-04-25 01:34 | -37.66719 | 144.84909 | 408 ft | 0 kts | 81° |
| 2026-04-25 01:46 | -37.66720 | 144.84904 | 408 ft | 2 kts | 81° |
| 2026-04-25 01:46 | -37.66721 | 144.84892 | 408 ft | 0 kts | 84° |
| 2026-04-25 01:46 | -37.66724 | 144.84874 | 408 ft | 2 kts | 62° |
| 2026-04-25 01:47 | -37.66732 | 144.84859 | 407 ft | 2 kts | 46° |
| 2026-04-25 01:47 | -37.66743 | 144.84847 | 407 ft | 2 kts | 29° |
| 2026-04-25 01:47 | -37.66757 | 144.84840 | 407 ft | 2 kts | 12° |
| 2026-04-25 01:47 | -37.66771 | 144.84839 | 407 ft | 1 kts | 355° |
| 2026-04-25 01:48 | -37.66777 | 144.84839 | 407 ft | 1 kts | 351° |
| 2026-04-25 01:48 | -37.66779 | 144.84840 | 407 ft | 0 kts | 352° |
| 2026-04-25 01:49 | -37.66777 | 144.84839 | 407 ft | 0 kts | 352° |
| 2026-04-25 01:49 | -37.66766 | 144.84837 | 407 ft | 2 kts | 352° |
| 2026-04-25 01:50 | -37.66749 | 144.84834 | 407 ft | 2 kts | 344° |
| 2026-04-25 01:50 | -37.66722 | 144.84822 | 406 ft | 6 kts | 341° |
| 2026-04-25 01:50 | -37.66680 | 144.84805 | 406 ft | 6 kts | 342° |
| 2026-04-25 01:50 | -37.66643 | 144.84776 | 405 ft | 6 kts | 304° |
| 2026-04-25 01:51 | -37.66641 | 144.84715 | 403 ft | 8 kts | 259° |
| 2026-04-25 01:51 | -37.66653 | 144.84624 | 400 ft | 12 kts | 260° |
| 2026-04-25 01:51 | -37.66674 | 144.84512 | 397 ft | 13 kts | 266° |
| 2026-04-25 01:51 | -37.66677 | 144.84392 | 395 ft | 14 kts | 268° |
| 2026-04-25 01:52 | -37.66696 | 144.84267 | 393 ft | 14 kts | 258° |
| 2026-04-25 01:52 | -37.66753 | 144.84184 | 392 ft | 12 kts | 189° |
| 2026-04-25 01:52 | -37.66838 | 144.84201 | 390 ft | 13 kts | 170° |
| 2026-04-25 01:52 | -37.66931 | 144.84216 | 389 ft | 14 kts | 170° |
| 2026-04-25 01:53 | -37.67027 | 144.84238 | 387 ft | 15 kts | 169° |
| 2026-04-25 01:53 | -37.67133 | 144.84258 | 385 ft | 16 kts | 172° |
| 2026-04-25 01:53 | -37.67240 | 144.84276 | 383 ft | 16 kts | 172° |
| 2026-04-25 01:53 | -37.67355 | 144.84296 | 380 ft | 18 kts | 169° |
| 2026-04-25 01:54 | -37.67474 | 144.84319 | 378 ft | 18 kts | 172° |
| 2026-04-25 01:54 | -37.67602 | 144.84341 | 374 ft | 20 kts | 172° |
| 2026-04-25 01:54 | -37.67741 | 144.84364 | 369 ft | 16 kts | 178° |
| 2026-04-25 01:54 | -37.67838 | 144.84311 | 367 ft | 16 kts | 238° |
| 2026-04-25 01:55 | -37.67867 | 144.84172 | 363 ft | 17 kts | 261° |
| 2026-04-25 01:55 | -37.67863 | 144.84016 | 360 ft | 18 kts | 293° |
| 2026-04-25 01:55 | -37.67766 | 144.83948 | 363 ft | 15 kts | 357° |
| 2026-04-25 01:55 | -37.67583 | 144.83914 | 369 ft | 55 kts | 350° |
| 2026-04-25 01:56 | -37.66971 | 144.83803 | 388 ft | 118 kts | 352° |
| 2026-04-25 01:56 | -37.65964 | 144.83614 | 465 ft | 163 kts | 354° |
| 2026-04-25 01:56 | -37.64766 | 144.83437 | 995 ft | 175 kts | 354° |
| 2026-04-25 01:56 | -37.63648 | 144.83205 | 2049 ft | 159 kts | 349° |
| 2026-04-25 01:57 | -37.61240 | 144.82718 | 3089 ft | 194 kts | 349° |
| 2026-04-25 01:57 | -37.59846 | 144.82457 | 3647 ft | 212 kts | 352° |
| 2026-04-25 01:57 | -37.58311 | 144.82669 | 4202 ft | 234 kts | 17° |
| 2026-04-25 01:58 | -37.56800 | 144.83612 | 4717 ft | 251 kts | 23° |
| 2026-04-25 01:58 | -37.55233 | 144.84621 | 5398 ft | 258 kts | 22° |
| 2026-04-25 01:58 | -37.53612 | 144.85617 | 6095 ft | 264 kts | 22° |
| 2026-04-25 01:58 | -37.51955 | 144.86627 | 6862 ft | 269 kts | 22° |
| 2026-04-25 01:59 | -37.50274 | 144.87650 | 7685 ft | 271 kts | 22° |
| 2026-04-25 01:59 | -37.48564 | 144.88686 | 8303 ft | 282 kts | 22° |
| 2026-04-25 01:59 | -37.46773 | 144.89769 | 8831 ft | 296 kts | 22° |
| 2026-04-25 01:59 | -37.44868 | 144.90944 | 9366 ft | 311 kts | 26° |
| 2026-04-25 02:00 | -37.43133 | 144.92610 | 10143 ft | 322 kts | 44° |
| 2026-04-25 02:00 | -37.41763 | 144.94855 | 10947 ft | 329 kts | 52° |
| 2026-04-25 02:00 | -37.40443 | 144.97257 | 11802 ft | 332 kts | 52° |
| 2026-04-25 02:00 | -37.39126 | 144.99641 | 12589 ft | 337 kts | 52° |
| 2026-04-25 02:01 | -37.37799 | 145.02017 | 13397 ft | 342 kts | 52° |
| 2026-04-25 02:01 | -37.36424 | 145.04460 | 14217 ft | 346 kts | 52° |
| 2026-04-25 02:01 | -37.35032 | 145.06926 | 15039 ft | 350 kts | 52° |
| 2026-04-25 02:01 | -37.33641 | 145.09386 | 15827 ft | 355 kts | 52° |
| 2026-04-25 02:02 | -37.32214 | 145.11906 | 16625 ft | 360 kts | 53° |
| 2026-04-25 02:02 | -37.30768 | 145.14458 | 17377 ft | 365 kts | 53° |
| 2026-04-25 02:02 | -37.29295 | 145.17055 | 18113 ft | 370 kts | 53° |
| 2026-04-25 02:02 | -37.27815 | 145.19659 | 18859 ft | 373 kts | 53° |
| 2026-04-25 02:03 | -37.26315 | 145.22301 | 19563 ft | 378 kts | 53° |
| 2026-04-25 02:03 | -37.24775 | 145.25006 | 20292 ft | 381 kts | 53° |
| 2026-04-25 02:03 | -37.23252 | 145.27679 | 20943 ft | 386 kts | 52° |
| 2026-04-25 02:03 | -37.21689 | 145.30421 | 21609 ft | 390 kts | 52° |
| 2026-04-25 02:04 | -37.20126 | 145.33159 | 22297 ft | 392 kts | 52° |
| 2026-04-25 02:04 | -37.18529 | 145.35956 | 22904 ft | 397 kts | 52° |
| 2026-04-25 02:04 | -37.16950 | 145.38719 | 23517 ft | 400 kts | 52° |
| 2026-04-25 02:04 | -37.15317 | 145.41574 | 24108 ft | 404 kts | 53° |
| 2026-04-25 02:05 | -37.13696 | 145.44405 | 24676 ft | 408 kts | 53° |
| 2026-04-25 02:05 | -37.12060 | 145.47258 | 25251 ft | 411 kts | 53° |
| 2026-04-25 02:05 | -37.10383 | 145.50180 | 25836 ft | 414 kts | 53° |
| 2026-04-25 02:05 | -37.08741 | 145.53043 | 26578 ft | 411 kts | 53° |
| 2026-04-25 02:06 | -37.07067 | 145.55957 | 27284 ft | 410 kts | 53° |
| 2026-04-25 02:06 | -37.05420 | 145.58820 | 27937 ft | 409 kts | 53° |
| 2026-04-25 02:06 | -37.03769 | 145.61685 | 28596 ft | 407 kts | 54° |
| 2026-04-25 02:06 | -37.02130 | 145.64531 | 29217 ft | 406 kts | 54° |
| 2026-04-25 02:07 | -37.00479 | 145.67394 | 29821 ft | 405 kts | 53° |
| 2026-04-25 02:07 | -36.98825 | 145.70259 | 30376 ft | 405 kts | 53° |
| 2026-04-25 02:07 | -36.97172 | 145.73120 | 30904 ft | 405 kts | 53° |
| 2026-04-25 02:07 | -36.95533 | 145.75955 | 31415 ft | 405 kts | 53° |
| 2026-04-25 02:08 | -36.93898 | 145.78780 | 31914 ft | 405 kts | 53° |
| 2026-04-25 02:08 | -36.92248 | 145.81628 | 32388 ft | 405 kts | 53° |
| 2026-04-25 02:08 | -36.90594 | 145.84482 | 32879 ft | 404 kts | 53° |
| 2026-04-25 02:08 | -36.88956 | 145.87306 | 33325 ft | 404 kts | 53° |
| 2026-04-25 02:09 | -36.87297 | 145.90163 | 33740 ft | 405 kts | 53° |
| 2026-04-25 02:09 | -36.85645 | 145.93007 | 34160 ft | 405 kts | 53° |
| 2026-04-25 02:09 | -36.84000 | 145.95836 | 34617 ft | 405 kts | 53° |
| 2026-04-25 02:09 | -36.82356 | 145.98660 | 35084 ft | 404 kts | 53° |
| 2026-04-25 02:10 | -36.80697 | 146.01508 | 35506 ft | 404 kts | 53° |
| 2026-04-25 02:10 | -36.79044 | 146.04343 | 35933 ft | 404 kts | 53° |
| 2026-04-25 02:10 | -36.77383 | 146.07190 | 36308 ft | 404 kts | 54° |
| 2026-04-25 02:10 | -36.75729 | 146.10022 | 36687 ft | 404 kts | 54° |
| 2026-04-25 02:11 | -36.74093 | 146.12820 | 37033 ft | 404 kts | 54° |
| 2026-04-25 02:11 | -36.72410 | 146.15697 | 37359 ft | 405 kts | 54° |
| 2026-04-25 02:11 | -36.70747 | 146.18538 | 37416 ft | 410 kts | 54° |
| 2026-04-25 02:12 | -36.67401 | 146.24245 | 37428 ft | 405 kts | 54° |
| 2026-04-25 02:12 | -36.64075 | 146.29910 | 37431 ft | 404 kts | 54° |
| 2026-04-25 02:13 | -36.60673 | 146.35693 | 37435 ft | 417 kts | 54° |
| 2026-04-25 02:13 | -36.57187 | 146.41608 | 37432 ft | 430 kts | 54° |
| 2026-04-25 02:14 | -36.53610 | 146.47665 | 37431 ft | 434 kts | 54° |
| 2026-04-25 02:14 | -36.49997 | 146.53773 | 37426 ft | 432 kts | 54° |
| 2026-04-25 02:15 | -36.46474 | 146.59721 | 37434 ft | 431 kts | 54° |
| 2026-04-25 02:15 | -36.42909 | 146.65730 | 37436 ft | 431 kts | 53° |
| 2026-04-25 02:16 | -36.39368 | 146.71686 | 37440 ft | 431 kts | 53° |
| 2026-04-25 02:16 | -36.35807 | 146.77664 | 37441 ft | 432 kts | 53° |
| 2026-04-25 02:17 | -36.32237 | 146.83650 | 37441 ft | 431 kts | 53° |
| 2026-04-25 02:17 | -36.28681 | 146.89600 | 37441 ft | 430 kts | 54° |
| 2026-04-25 02:18 | -36.25130 | 146.95531 | 37441 ft | 430 kts | 54° |
| 2026-04-25 02:18 | -36.21605 | 147.01407 | 37446 ft | 430 kts | 54° |
| 2026-04-25 02:19 | -36.18063 | 147.07303 | 37447 ft | 430 kts | 54° |
| 2026-04-25 02:19 | -36.14532 | 147.13171 | 37449 ft | 429 kts | 54° |
| 2026-04-25 02:20 | -36.10968 | 147.19084 | 37451 ft | 435 kts | 54° |
| 2026-04-25 02:20 | -36.07310 | 147.25142 | 37448 ft | 444 kts | 54° |
| 2026-04-25 02:21 | -36.03596 | 147.31279 | 37449 ft | 441 kts | 54° |
| 2026-04-25 02:21 | -35.99937 | 147.37314 | 37447 ft | 441 kts | 54° |
| 2026-04-25 02:22 | -35.96262 | 147.43368 | 37449 ft | 442 kts | 54° |
| 2026-04-25 02:22 | -35.92572 | 147.49435 | 37452 ft | 441 kts | 54° |
| 2026-04-25 02:23 | -35.88894 | 147.55470 | 37451 ft | 441 kts | 54° |
| 2026-04-25 02:23 | -35.85209 | 147.61510 | 37449 ft | 441 kts | 54° |
| 2026-04-25 02:24 | -35.81529 | 147.67528 | 37447 ft | 440 kts | 53° |
| 2026-04-25 02:24 | -35.77832 | 147.73564 | 37449 ft | 441 kts | 53° |
| 2026-04-25 02:25 | -35.74140 | 147.79582 | 37450 ft | 441 kts | 53° |
| 2026-04-25 02:25 | -35.70440 | 147.85602 | 37450 ft | 440 kts | 53° |
| 2026-04-25 02:26 | -35.66747 | 147.91600 | 37447 ft | 440 kts | 53° |
| 2026-04-25 02:26 | -35.63045 | 147.97603 | 37449 ft | 441 kts | 53° |
| 2026-04-25 02:27 | -35.59348 | 148.03587 | 37450 ft | 441 kts | 54° |
| 2026-04-25 02:27 | -35.55649 | 148.09564 | 37445 ft | 440 kts | 54° |
| 2026-04-25 02:28 | -35.51936 | 148.15555 | 37439 ft | 441 kts | 54° |
| 2026-04-25 02:28 | -35.48151 | 148.21651 | 37447 ft | 453 kts | 54° |
| 2026-04-25 02:29 | -35.44208 | 148.27988 | 37446 ft | 465 kts | 54° |
| 2026-04-25 02:29 | -35.40230 | 148.34370 | 37444 ft | 475 kts | 54° |
| 2026-04-25 02:30 | -35.36177 | 148.40858 | 37450 ft | 473 kts | 54° |
| 2026-04-25 02:30 | -35.32168 | 148.47266 | 37454 ft | 472 kts | 54° |
| 2026-04-25 02:31 | -35.28167 | 148.53650 | 37458 ft | 474 kts | 54° |
| 2026-04-25 02:31 | -35.24113 | 148.60107 | 37453 ft | 482 kts | 54° |
| 2026-04-25 02:32 | -35.20008 | 148.66632 | 37449 ft | 482 kts | 53° |
| 2026-04-25 02:32 | -35.15929 | 148.73103 | 37447 ft | 481 kts | 54° |
| 2026-04-25 02:33 | -35.11849 | 148.79564 | 37444 ft | 481 kts | 54° |
| 2026-04-25 02:33 | -35.07768 | 148.86015 | 37441 ft | 480 kts | 54° |
| 2026-04-25 02:34 | -35.03648 | 148.92516 | 37442 ft | 480 kts | 54° |
| 2026-04-25 02:34 | -34.99499 | 148.99049 | 37442 ft | 480 kts | 54° |
| 2026-04-25 02:35 | -34.95391 | 149.05507 | 37448 ft | 480 kts | 54° |
| 2026-04-25 02:35 | -34.91245 | 149.12012 | 37448 ft | 479 kts | 54° |
| 2026-04-25 02:36 | -34.87136 | 149.18446 | 37451 ft | 480 kts | 54° |
| 2026-04-25 02:36 | -34.83060 | 149.24820 | 37445 ft | 479 kts | 54° |
| 2026-04-25 02:37 | -34.78971 | 149.31201 | 37454 ft | 479 kts | 54° |
| 2026-04-25 02:37 | -34.74909 | 149.37686 | 37450 ft | 477 kts | 58° |
| 2026-04-25 02:38 | -34.71543 | 149.44594 | 37458 ft | 475 kts | 64° |
| 2026-04-25 02:38 | -34.68433 | 149.51677 | 37460 ft | 474 kts | 65° |
| 2026-04-25 02:39 | -34.65319 | 149.58826 | 37463 ft | 474 kts | 65° |
| 2026-04-25 02:39 | -34.62227 | 149.65900 | 37441 ft | 472 kts | 64° |
| 2026-04-25 02:39 | -34.60684 | 149.69420 | 36960 ft | 469 kts | 64° |
| 2026-04-25 02:40 | -34.59148 | 149.72922 | 35999 ft | 471 kts | 64° |
| 2026-04-25 02:40 | -34.57601 | 149.76448 | 34823 ft | 477 kts | 64° |
| 2026-04-25 02:40 | -34.56044 | 149.79994 | 33795 ft | 479 kts | 64° |
| 2026-04-25 02:40 | -34.54446 | 149.83624 | 32870 ft | 479 kts | 64° |
| 2026-04-25 02:41 | -34.52802 | 149.87357 | 31912 ft | 480 kts | 64° |
| 2026-04-25 02:41 | -34.51199 | 149.90996 | 30921 ft | 483 kts | 64° |
| 2026-04-25 02:41 | -34.49633 | 149.94575 | 29915 ft | 477 kts | 64° |
| 2026-04-25 02:41 | -34.48085 | 149.98077 | 28406 ft | 479 kts | 64° |
| 2026-04-25 02:42 | -34.46497 | 150.01656 | 26832 ft | 480 kts | 64° |
| 2026-04-25 02:42 | -34.44917 | 150.05211 | 25273 ft | 479 kts | 64° |
| 2026-04-25 02:42 | -34.43373 | 150.08682 | 24052 ft | 470 kts | 64° |
| 2026-04-25 02:42 | -34.41832 | 150.12146 | 22813 ft | 462 kts | 63° |
| 2026-04-25 02:43 | -34.40364 | 150.15445 | 21793 ft | 451 kts | 63° |
| 2026-04-25 02:43 | -34.38907 | 150.18713 | 21071 ft | 433 kts | 63° |
| 2026-04-25 02:43 | -34.37508 | 150.21851 | 20439 ft | 416 kts | 63° |
| 2026-04-25 02:43 | -34.36174 | 150.24843 | 19812 ft | 401 kts | 63° |
| 2026-04-25 02:44 | -34.34885 | 150.27731 | 19199 ft | 388 kts | 63° |
| 2026-04-25 02:44 | -34.33641 | 150.30524 | 18565 ft | 376 kts | 63° |
| 2026-04-25 02:44 | -34.32418 | 150.33270 | 17947 ft | 365 kts | 63° |
| 2026-04-25 02:44 | -34.31241 | 150.35910 | 17323 ft | 355 kts | 63° |
| 2026-04-25 02:45 | -34.30080 | 150.38510 | 16700 ft | 347 kts | 63° |
| 2026-04-25 02:45 | -34.28962 | 150.41013 | 16083 ft | 339 kts | 63° |
| 2026-04-25 02:45 | -34.27859 | 150.43478 | 15466 ft | 332 kts | 63° |
| 2026-04-25 02:45 | -34.26765 | 150.45926 | 14827 ft | 326 kts | 63° |
| 2026-04-25 02:46 | -34.25705 | 150.48303 | 14221 ft | 320 kts | 63° |
| 2026-04-25 02:46 | -34.24654 | 150.50658 | 13605 ft | 315 kts | 63° |
| 2026-04-25 02:46 | -34.23635 | 150.52934 | 13007 ft | 311 kts | 63° |
| 2026-04-25 02:46 | -34.22618 | 150.55208 | 12405 ft | 306 kts | 63° |
| 2026-04-25 02:47 | -34.21611 | 150.57455 | 11786 ft | 303 kts | 63° |
| 2026-04-25 02:47 | -34.20619 | 150.59668 | 11156 ft | 299 kts | 63° |
| 2026-04-25 02:47 | -34.19638 | 150.61856 | 10586 ft | 299 kts | 63° |
| 2026-04-25 02:47 | -34.18642 | 150.64075 | 9960 ft | 304 kts | 63° |
| 2026-04-25 02:48 | -34.17610 | 150.66373 | 9340 ft | 308 kts | 62° |
| 2026-04-25 02:48 | -34.16564 | 150.68698 | 8717 ft | 312 kts | 62° |
| 2026-04-25 02:48 | -34.15533 | 150.70989 | 8098 ft | 314 kts | 62° |
| 2026-04-25 02:48 | -34.14483 | 150.73322 | 7486 ft | 316 kts | 61° |
| 2026-04-25 02:49 | -34.13439 | 150.75636 | 6868 ft | 317 kts | 61° |
| 2026-04-25 02:49 | -34.12379 | 150.77988 | 6380 ft | 313 kts | 61° |
| 2026-04-25 02:49 | -34.11350 | 150.80270 | 6265 ft | 297 kts | 61° |
| 2026-04-25 02:49 | -34.10399 | 150.82379 | 6257 ft | 279 kts | 61° |
| 2026-04-25 02:50 | -34.09501 | 150.84372 | 6263 ft | 263 kts | 61° |
| 2026-04-25 02:50 | -34.08662 | 150.86240 | 6256 ft | 248 kts | 61° |
| 2026-04-25 02:50 | -34.07873 | 150.87994 | 6256 ft | 239 kts | 61° |
| 2026-04-25 02:50 | -34.07095 | 150.89723 | 6261 ft | 238 kts | 61° |
| 2026-04-25 02:51 | -34.06325 | 150.91432 | 6270 ft | 239 kts | 61° |
| 2026-04-25 02:51 | -34.05573 | 150.93102 | 6265 ft | 238 kts | 61° |
| 2026-04-25 02:51 | -34.04801 | 150.94812 | 6274 ft | 239 kts | 61° |
| 2026-04-25 02:51 | -34.04037 | 150.96507 | 6282 ft | 239 kts | 61° |
| 2026-04-25 02:52 | -34.03400 | 150.98292 | 6275 ft | 239 kts | 76° |
| 2026-04-25 02:52 | -34.03323 | 151.00235 | 6279 ft | 241 kts | 98° |
| 2026-04-25 02:52 | -34.03828 | 151.02135 | 6284 ft | 244 kts | 116° |
| 2026-04-25 02:52 | -34.04807 | 151.03769 | 6132 ft | 249 kts | 131° |
| 2026-04-25 02:53 | -34.05981 | 151.05215 | 5899 ft | 246 kts | 133° |
| 2026-04-25 02:53 | -34.07128 | 151.06621 | 5663 ft | 243 kts | 134° |
| 2026-04-25 02:53 | -34.08459 | 151.07782 | 5405 ft | 243 kts | 155° |
| 2026-04-25 02:53 | -34.10068 | 151.08304 | 5159 ft | 241 kts | 167° |
| 2026-04-25 02:54 | -34.11696 | 151.08691 | 4812 ft | 243 kts | 167° |
| 2026-04-25 02:54 | -34.13323 | 151.09027 | 4466 ft | 245 kts | 178° |
| 2026-04-25 02:54 | -34.14919 | 151.08720 | 4158 ft | 246 kts | 193° |
| 2026-04-25 02:54 | -34.16621 | 151.08473 | 3787 ft | 246 kts | 170° |
| 2026-04-25 02:55 | -34.18108 | 151.09300 | 3454 ft | 234 kts | 130° |
| 2026-04-25 02:55 | -34.18737 | 151.10953 | 3375 ft | 209 kts | 87° |
| 2026-04-25 02:55 | -34.18489 | 151.12617 | 3412 ft | 199 kts | 72° |
| 2026-04-25 02:55 | -34.18112 | 151.14226 | 3446 ft | 198 kts | 70° |
| 2026-04-25 02:56 | -34.17368 | 151.15591 | 3444 ft | 196 kts | 46° |
| 2026-04-25 02:56 | -34.16525 | 151.16885 | 3586 ft | 195 kts | 56° |
| 2026-04-25 02:56 | -34.15875 | 151.18356 | 3524 ft | 200 kts | 71° |
| 2026-04-25 02:56 | -34.15500 | 151.19916 | 3697 ft | 193 kts | 72° |
| 2026-04-25 02:57 | -34.15018 | 151.21475 | 3754 ft | 200 kts | 59° |
| 2026-04-25 02:57 | -34.13939 | 151.22511 | 3548 ft | 201 kts | 16° |
| 2026-04-25 02:57 | -34.12580 | 151.22391 | 3264 ft | 199 kts | 343° |
| 2026-04-25 02:57 | -34.11277 | 151.21902 | 2984 ft | 194 kts | 349° |
| 2026-04-25 02:58 | -34.10001 | 151.21574 | 2716 ft | 185 kts | 350° |
| 2026-04-25 02:58 | -34.08783 | 151.21256 | 2482 ft | 184 kts | 349° |
| 2026-04-25 02:58 | -34.07527 | 151.20929 | 2234 ft | 185 kts | 349° |
| 2026-04-25 02:58 | -34.06268 | 151.20602 | 1977 ft | 180 kts | 349° |
| 2026-04-25 02:59 | -34.05120 | 151.20305 | 1774 ft | 164 kts | 349° |
| 2026-04-25 02:59 | -34.04063 | 151.20032 | 1518 ft | 151 kts | 349° |
| 2026-04-25 02:59 | -34.03114 | 151.19788 | 1357 ft | 139 kts | 349° |
| 2026-04-25 02:59 | -34.02209 | 151.19554 | 1181 ft | 137 kts | 348° |
| 2026-04-25 03:00 | -34.01318 | 151.19324 | 1004 ft | 138 kts | 348° |
| 2026-04-25 03:00 | -34.00399 | 151.19086 | 821 ft | 137 kts | 348° |
| 2026-04-25 03:00 | -33.99506 | 151.18855 | 650 ft | 136 kts | 348° |
| 2026-04-25 03:00 | -33.98635 | 151.18631 | 481 ft | 135 kts | 347° |
| 2026-04-25 03:01 | -33.97742 | 151.18402 | 312 ft | 134 kts | 347° |
| 2026-04-25 03:01 | -33.96880 | 151.18184 | 156 ft | 129 kts | 347° |
| 2026-04-25 03:01 | -33.96042 | 151.17969 | 17 ft | 118 kts | 346° |
| 2026-04-25 03:01 | -33.95414 | 151.17798 | 16 ft | 76 kts | 348° |
| 2026-04-25 03:02 | -33.94957 | 151.17677 | 20 ft | 63 kts | 347° |
| 2026-04-25 03:02 | -33.94572 | 151.17580 | 24 ft | 52 kts | 349° |
| 2026-04-25 03:02 | -33.94282 | 151.17508 | 20 ft | 24 kts | 348° |
| 2026-04-25 03:02 | -33.94212 | 151.17491 | 18 ft | 15 kts | 347° |
| 2026-04-25 03:03 | -33.94068 | 151.17450 | 15 ft | 28 kts | 348° |
| 2026-04-25 03:03 | -33.93897 | 151.17471 | 11 ft | 22 kts | 81° |
| 2026-04-25 03:03 | -33.93897 | 151.17561 | 9 ft | 0 kts | 72° |
| 2026-04-25 03:04 | -33.93897 | 151.17563 | 9 ft | 1 kts | 72° |
| 2026-04-25 03:04 | -33.93869 | 151.17590 | 9 ft | 8 kts | 26° |
| 2026-04-25 03:05 | -33.93738 | 151.17567 | 9 ft | 9 kts | 347° |
| 2026-04-25 03:05 | -33.93633 | 151.17541 | 9 ft | 24 kts | 346° |
| 2026-04-25 03:05 | -33.93472 | 151.17496 | 11 ft | 24 kts | 345° |
| 2026-04-25 03:05 | -33.93329 | 151.17480 | 16 ft | 20 kts | 352° |
| 2026-04-25 03:06 | -33.93203 | 151.17459 | 19 ft | 17 kts | 351° |
| 2026-04-25 03:06 | -33.93098 | 151.17436 | 20 ft | 14 kts | 6° |
| 2026-04-25 03:06 | -33.93060 | 151.17514 | 21 ft | 11 kts | 74° |
| 2026-04-25 03:06 | -33.93016 | 151.17558 | 22 ft | 6 kts | 37° |
| 2026-04-25 03:07 | -33.93007 | 151.17603 | 22 ft | 5 kts | 96° |
| 2026-04-25 03:07 | -33.93016 | 151.17654 | 22 ft | 8 kts | 105° |
| 2026-04-25 03:07 | -33.93043 | 151.17729 | 22 ft | 9 kts | 117° |
| 2026-04-25 03:07 | -33.93062 | 151.17798 | 22 ft | 8 kts | 100° |
| 2026-04-25 03:08 | -33.93097 | 151.17818 | 22 ft | 6 kts | 200° |
| 2026-04-25 03:08 | -33.93135 | 151.17804 | 22 ft | 5 kts | 191° |
| 2026-04-25 03:08 | -33.93147 | 151.17801 | 22 ft | 0 kts | 191° |